^^
Station Historical Data
Daily Summary for February 16, 2018 Units:  Both    English   Metric
« Previous Day
Next Day »
Daily Weekly Monthly Yearly Custom
  High: Low: Average:
Temperature: TemperatureF °F /  -17.8 °C 54.0 °F /  12.2 °C 71.5 °F /  21.9 °C
Dew Point: DewpointF °F /  -17.8 °C 21.4 °F /  -5.9 °C 34.4 °F /  1.3 °C
Humidity: Humidity% 9% 31%
Wind Speed: WindSpeedMPHmph /  0km/h - 1.4mph /  2.3km/h
Wind Gust: WindSpeedGustMPHmph /  0km/h - -
Wind- - SW
Pressure: PressureIn in /  0 hPa 29.65 in /  1003.9 hPa -
Precipitation: 0.00 in /  0 mm    
Historical Graphs
 
 
Tabular Data for February 16, 2018
Time Temperature Dew Point Pressure Wind Wind Speed Wind Gust Humidity Rainfall Rate (Hourly) solar Conditions
TemperatureF °F /  -17.8 °C DewpointF °F /  -17.8 °C PressureInin /  0hPa Calm     Humidity% HourlyPrecipInin /  0mm SolarRadiationWatts/m^2 W/m2 Conditions
00:05 67.5 °F /  19.7 °C 41.7 °F /  5.4 °C 29.71in /  1006hPa Calm     39% 0.00in /  0mm 0.0 W/m2
00:10 67.3 °F /  19.6 °C 42.1 °F /  5.6 °C 29.71in /  1006hPa Calm     40% 0.00in /  0mm 0.0 W/m2
00:15 66.7 °F /  19.3 °C 42.3 °F /  5.7 °C 29.71in /  1006hPa Calm     41% 0.00in /  0mm 0.0 W/m2
00:20 66.4 °F /  19.1 °C 41.9 °F /  5.5 °C 29.71in /  1006hPa Calm     41% 0.00in /  0mm 0.0 W/m2
00:26 66.0 °F /  18.9 °C 42.8 °F /  6 °C 29.70in /  1005.6hPa Calm     43% 0.00in /  0mm 0.0 W/m2
00:31 65.7 °F /  18.7 °C 43.2 °F /  6.2 °C 29.70in /  1005.6hPa Calm     44% 0.00in /  0mm 0.0 W/m2
00:36 65.5 °F /  18.6 °C 43.0 °F /  6.1 °C 29.70in /  1005.6hPa Calm     44% 0.00in /  0mm 0.0 W/m2
00:41 64.9 °F /  18.3 °C 43.2 °F /  6.2 °C 29.70in /  1005.6hPa Calm     45% 0.00in /  0mm 0.0 W/m2
00:46 64.8 °F /  18.2 °C 43.0 °F /  6.1 °C 29.70in /  1005.6hPa Calm     45% 0.00in /  0mm 0.0 W/m2
00:51 64.4 °F /  18 °C 40.8 °F /  4.9 °C 29.70in /  1005.6hPa Calm     42% 0.00in /  0mm 0.0 W/m2
00:56 64.0 °F /  17.8 °C 41.2 °F /  5.1 °C 29.70in /  1005.6hPa Calm     43% 0.00in /  0mm 0.0 W/m2
01:01 63.9 °F /  17.7 °C 41.0 °F /  5 °C 29.70in /  1005.6hPa Calm   1.0mph /  1.6km/h 43% 0.00in /  0mm 0.0 W/m2
01:06 63.7 °F /  17.6 °C 40.8 °F /  4.9 °C 29.70in /  1005.6hPa Calm     43% 0.00in /  0mm 0.0 W/m2
01:11 63.3 °F /  17.4 °C 43.3 °F /  6.3 °C 29.70in /  1005.6hPa Calm     48% 0.00in /  0mm 0.0 W/m2
01:17 63.1 °F /  17.3 °C 43.2 °F /  6.2 °C 29.70in /  1005.6hPa Calm     48% 0.00in /  0mm 0.0 W/m2
01:22 62.8 °F /  17.1 °C 42.8 °F /  6 °C 29.69in /  1005.3hPa Calm     48% 0.00in /  0mm 0.0 W/m2
01:27 62.4 °F /  16.9 °C 42.4 °F /  5.8 °C 29.69in /  1005.3hPa Calm     48% 0.00in /  0mm 0.0 W/m2
01:32 62.2 °F /  16.8 °C 42.3 °F /  5.7 °C 29.69in /  1005.3hPa Calm     48% 0.00in /  0mm 0.0 W/m2
01:37 62.1 °F /  16.7 °C 42.6 °F /  5.9 °C 29.69in /  1005.3hPa Calm     49% 0.00in /  0mm 0.0 W/m2
01:47 61.9 °F /  16.6 °C 43.0 °F /  6.1 °C 29.68in /  1005hPa Calm     50% 0.00in /  0mm 0.0 W/m2
01:52 61.5 °F /  16.4 °C 42.3 °F /  5.7 °C 29.68in /  1005hPa Calm     49% 0.00in /  0mm 0.0 W/m2
01:57 61.3 °F /  16.3 °C 41.5 °F /  5.3 °C 29.68in /  1005hPa Calm     48% 0.00in /  0mm 0.0 W/m2
02:03 61.2 °F /  16.2 °C 40.8 °F /  4.9 °C 29.67in /  1004.6hPa Calm   1.0mph /  1.6km/h 47% 0.00in /  0mm 0.0 W/m2
02:08 61.0 °F /  16.1 °C 40.6 °F /  4.8 °C 29.67in /  1004.6hPa Calm   1.0mph /  1.6km/h 47% 0.00in /  0mm 0.0 W/m2
02:13 60.8 °F /  16 °C 40.5 °F /  4.7 °C 29.67in /  1004.6hPa Calm   3.0mph /  4.8km/h 47% 0.00in /  0mm 0.0 W/m2
02:18 60.6 °F /  15.9 °C 39.7 °F /  4.3 °C 29.67in /  1004.6hPa Calm     46% 0.00in /  0mm 0.0 W/m2
02:23 60.4 °F /  15.8 °C 40.1 °F /  4.5 °C 29.67in /  1004.6hPa ESE 0.9mph /  1.4km/h 1.0mph /  1.6km/h 47% 0.00in /  0mm 0.0 W/m2
02:28 60.4 °F /  15.8 °C 41.2 °F /  5.1 °C 29.67in /  1004.6hPa Calm     49% 0.00in /  0mm 0.0 W/m2
02:33 60.3 °F /  15.7 °C 41.0 °F /  5 °C 29.67in /  1004.6hPa Calm     49% 0.00in /  0mm 0.0 W/m2
02:38 60.3 °F /  15.7 °C 42.1 °F /  5.6 °C 29.67in /  1004.6hPa Calm   1.0mph /  1.6km/h 51% 0.00in /  0mm 0.0 W/m2
02:43 60.1 °F /  15.6 °C 43.0 °F /  6.1 °C 29.66in /  1004.3hPa Calm     53% 0.00in /  0mm 0.0 W/m2
02:49 59.7 °F /  15.4 °C 42.6 °F /  5.9 °C 29.66in /  1004.3hPa Calm     53% 0.00in /  0mm 0.0 W/m2
02:54 59.7 °F /  15.4 °C 43.0 °F /  6.1 °C 29.66in /  1004.3hPa Calm     54% 0.00in /  0mm 0.0 W/m2
02:59 59.5 °F /  15.3 °C 42.4 °F /  5.8 °C 29.66in /  1004.3hPa Calm     53% 0.00in /  0mm 0.0 W/m2
03:04 59.4 °F /  15.2 °C 42.3 °F /  5.7 °C 29.66in /  1004.3hPa Calm     53% 0.00in /  0mm 0.0 W/m2
03:09 59.2 °F /  15.1 °C 42.1 °F /  5.6 °C 29.66in /  1004.3hPa Calm     53% 0.00in /  0mm 0.0 W/m2
03:14 58.8 °F /  14.9 °C 42.3 °F /  5.7 °C 29.66in /  1004.3hPa Calm     54% 0.00in /  0mm 0.0 W/m2
03:19 58.6 °F /  14.8 °C 42.1 °F /  5.6 °C 29.65in /  1003.9hPa Calm     54% 0.00in /  0mm 0.0 W/m2
03:24 58.5 °F /  14.7 °C 42.4 °F /  5.8 °C 29.65in /  1003.9hPa Calm     55% 0.00in /  0mm 0.0 W/m2
03:29 58.3 °F /  14.6 °C 42.3 °F /  5.7 °C 29.65in /  1003.9hPa Calm     55% 0.00in /  0mm 0.0 W/m2
03:34 58.1 °F /  14.5 °C 42.4 °F /  5.8 °C 29.65in /  1003.9hPa Calm     56% 0.00in /  0mm 0.0 W/m2
03:40 57.9 °F /  14.4 °C 40.5 °F /  4.7 °C 29.65in /  1003.9hPa Calm   2.0mph /  3.2km/h 52% 0.00in /  0mm 0.0 W/m2
03:45 57.9 °F /  14.4 °C 40.8 °F /  4.9 °C 29.65in /  1003.9hPa East 2.0mph /  3.2km/h 3.0mph /  4.8km/h 53% 0.00in /  0mm 0.0 W/m2
03:50 57.9 °F /  14.4 °C 41.4 °F /  5.2 °C 29.65in /  1003.9hPa Calm   5.0mph /  8km/h 54% 0.00in /  0mm 0.0 W/m2
03:55 57.9 °F /  14.4 °C 40.8 °F /  4.9 °C 29.65in /  1003.9hPa Calm   3.0mph /  4.8km/h 53% 0.00in /  0mm 0.0 W/m2
04:00 58.1 °F /  14.5 °C 40.6 °F /  4.8 °C 29.65in /  1003.9hPa Calm   3.0mph /  4.8km/h 52% 0.00in /  0mm 0.0 W/m2
04:05 58.1 °F /  14.5 °C 40.6 °F /  4.8 °C 29.65in /  1003.9hPa East 2.9mph /  4.7km/h 3.0mph /  4.8km/h 52% 0.00in /  0mm 0.0 W/m2
04:10 57.9 °F /  14.4 °C 39.9 °F /  4.4 °C 29.65in /  1003.9hPa Calm   2.0mph /  3.2km/h 51% 0.00in /  0mm 0.0 W/m2
04:15 57.9 °F /  14.4 °C 39.9 °F /  4.4 °C 29.65in /  1003.9hPa East 0.9mph /  1.4km/h 3.0mph /  4.8km/h 51% 0.00in /  0mm 0.0 W/m2
04:21 57.9 °F /  14.4 °C 39.9 °F /  4.4 °C 29.65in /  1003.9hPa ESE 0.9mph /  1.4km/h 3.0mph /  4.8km/h 51% 0.00in /  0mm 0.0 W/m2
04:26 57.9 °F /  14.4 °C 39.4 °F /  4.1 °C 29.65in /  1003.9hPa Calm   2.0mph /  3.2km/h 50% 0.00in /  0mm 0.0 W/m2
04:31 57.9 °F /  14.4 °C 39.4 °F /  4.1 °C 29.65in /  1003.9hPa Calm   1.0mph /  1.6km/h 50% 0.00in /  0mm 0.0 W/m2
04:36 57.9 °F /  14.4 °C 39.4 °F /  4.1 °C 29.65in /  1003.9hPa ESE 2.0mph /  3.2km/h 2.0mph /  3.2km/h 50% 0.00in /  0mm 0.0 W/m2
04:41 57.7 °F /  14.3 °C 39.2 °F /  4 °C 29.65in /  1003.9hPa Calm   2.0mph /  3.2km/h 50% 0.00in /  0mm 0.0 W/m2
04:46 57.7 °F /  14.3 °C 39.7 °F /  4.3 °C 29.66in /  1004.3hPa ENE 2.0mph /  3.2km/h 4.0mph /  6.4km/h 51% 0.00in /  0mm 0.0 W/m2
04:51 57.7 °F /  14.3 °C 39.7 °F /  4.3 °C 29.66in /  1004.3hPa ESE 0.9mph /  1.4km/h 4.0mph /  6.4km/h 51% 0.00in /  0mm 0.0 W/m2
04:56 57.7 °F /  14.3 °C 39.7 °F /  4.3 °C 29.66in /  1004.3hPa East 0.9mph /  1.4km/h 3.0mph /  4.8km/h 51% 0.00in /  0mm 0.0 W/m2
05:02 57.6 °F /  14.2 °C 39.6 °F /  4.2 °C 29.66in /  1004.3hPa Calm   1.0mph /  1.6km/h 51% 0.00in /  0mm 0.0 W/m2
05:07 57.6 °F /  14.2 °C 39.0 °F /  3.9 °C 29.67in /  1004.6hPa Calm   1.0mph /  1.6km/h 50% 0.00in /  0mm 0.0 W/m2
05:12 57.4 °F /  14.1 °C 39.4 °F /  4.1 °C 29.67in /  1004.6hPa Calm   1.0mph /  1.6km/h 51% 0.00in /  0mm 0.0 W/m2
05:17 57.2 °F /  14 °C 39.2 °F /  4 °C 29.67in /  1004.6hPa Calm     51% 0.00in /  0mm 0.0 W/m2
05:22 57.0 °F /  13.9 °C 39.0 °F /  3.9 °C 29.67in /  1004.6hPa Calm   1.0mph /  1.6km/h 51% 0.00in /  0mm 0.0 W/m2
05:27 56.8 °F /  13.8 °C 38.8 °F /  3.8 °C 29.67in /  1004.6hPa Calm   1.0mph /  1.6km/h 51% 0.00in /  0mm 0.0 W/m2
05:32 56.7 °F /  13.7 °C 38.7 °F /  3.7 °C 29.68in /  1005hPa ESE 0.9mph /  1.4km/h 3.0mph /  4.8km/h 51% 0.00in /  0mm 0.0 W/m2
05:37 56.7 °F /  13.7 °C 39.2 °F /  4 °C 29.68in /  1005hPa Calm   3.0mph /  4.8km/h 52% 0.00in /  0mm 0.0 W/m2
05:43 56.5 °F /  13.6 °C 40.1 °F /  4.5 °C 29.69in /  1005.3hPa Calm   2.0mph /  3.2km/h 54% 0.00in /  0mm 0.0 W/m2
05:48 56.3 °F /  13.5 °C 40.8 °F /  4.9 °C 29.69in /  1005.3hPa Calm     56% 0.00in /  0mm 0.0 W/m2
05:53 56.1 °F /  13.4 °C 40.6 °F /  4.8 °C 29.69in /  1005.3hPa Calm   1.0mph /  1.6km/h 56% 0.00in /  0mm 0.0 W/m2
05:59 55.9 °F /  13.3 °C 39.9 °F /  4.4 °C 29.69in /  1005.3hPa Calm     55% 0.00in /  0mm 0.0 W/m2
06:04 55.8 °F /  13.2 °C 39.4 °F /  4.1 °C 29.70in /  1005.6hPa Calm     54% 0.00in /  0mm 0.0 W/m2
06:09 55.8 °F /  13.2 °C 38.8 °F /  3.8 °C 29.70in /  1005.6hPa Calm     53% 0.00in /  0mm 0.0 W/m2
06:14 55.6 °F /  13.1 °C 40.6 °F /  4.8 °C 29.70in /  1005.6hPa Calm     57% 0.00in /  0mm 0.0 W/m2
06:19 55.4 °F /  13 °C 40.5 °F /  4.7 °C 29.70in /  1005.6hPa Calm     57% 0.00in /  0mm 0.0 W/m2
06:24 55.2 °F /  12.9 °C 40.3 °F /  4.6 °C 29.71in /  1006hPa Calm   1.0mph /  1.6km/h 57% 0.00in /  0mm 0.0 W/m2
06:29 55.0 °F /  12.8 °C 40.5 °F /  4.7 °C 29.71in /  1006hPa Calm     58% 0.00in /  0mm 0.0 W/m2
06:35 55.0 °F /  12.8 °C 42.6 °F /  5.9 °C 29.71in /  1006hPa Calm     63% 0.00in /  0mm 0.0 W/m2
06:40 54.9 °F /  12.7 °C 43.0 °F /  6.1 °C 29.72in /  1006.3hPa Calm     64% 0.00in /  0mm 0.0 W/m2
06:46 54.7 °F /  12.6 °C 41.9 °F /  5.5 °C 29.72in /  1006.3hPa Calm     62% 0.00in /  0mm 5.0 W/m2
06:51 54.3 °F /  12.4 °C 41.2 °F /  5.1 °C 29.72in /  1006.3hPa Calm     61% 0.00in /  0mm 5.0 W/m2
06:56 54.3 °F /  12.4 °C 41.2 °F /  5.1 °C 29.72in /  1006.3hPa Calm     61% 0.00in /  0mm 7.0 W/m2
07:01 54.1 °F /  12.3 °C 41.4 °F /  5.2 °C 29.72in /  1006.3hPa Calm     62% 0.00in /  0mm 11.0 W/m2
07:06 54.1 °F /  12.3 °C 41.9 °F /  5.5 °C 29.72in /  1006.3hPa Calm     63% 0.00in /  0mm 11.0 W/m2
07:11 54.1 °F /  12.3 °C 41.9 °F /  5.5 °C 29.72in /  1006.3hPa Calm     63% 0.00in /  0mm 12.0 W/m2
07:16 54.0 °F /  12.2 °C 41.2 °F /  5.1 °C 29.73in /  1006.7hPa Calm     62% 0.00in /  0mm 12.0 W/m2
07:21 54.1 °F /  12.3 °C 43.0 °F /  6.1 °C 29.73in /  1006.7hPa Calm     66% 0.00in /  0mm 12.0 W/m2
07:26 54.1 °F /  12.3 °C 42.6 °F /  5.9 °C 29.73in /  1006.7hPa Calm     65% 0.00in /  0mm 16.0 W/m2
07:32 54.1 °F /  12.3 °C 42.6 °F /  5.9 °C 29.73in /  1006.7hPa Calm     65% 0.00in /  0mm 19.0 W/m2
07:37 54.3 °F /  12.4 °C 42.4 °F /  5.8 °C 29.73in /  1006.7hPa Calm   1.0mph /  1.6km/h 64% 0.00in /  0mm 21.0 W/m2
07:42 54.3 °F /  12.4 °C 43.2 °F /  6.2 °C 29.73in /  1006.7hPa Calm     66% 0.00in /  0mm 23.0 W/m2
07:47 54.7 °F /  12.6 °C 42.8 °F /  6 °C 29.73in /  1006.7hPa Calm   2.0mph /  3.2km/h 64% 0.00in /  0mm 23.0 W/m2
07:52 55.4 °F /  13 °C 42.6 °F /  5.9 °C 29.73in /  1006.7hPa Calm   1.0mph /  1.6km/h 62% 0.00in /  0mm 46.0 W/m2
07:57 56.1 °F /  13.4 °C 42.4 °F /  5.8 °C 29.73in /  1006.7hPa Calm   1.0mph /  1.6km/h 60% 0.00in /  0mm 35.0 W/m2
08:02 56.8 °F /  13.8 °C 42.6 °F /  5.9 °C 29.73in /  1006.7hPa ESE 0.9mph /  1.4km/h 2.0mph /  3.2km/h 59% 0.00in /  0mm 39.0 W/m2
08:07 57.7 °F /  14.3 °C 43.5 °F /  6.4 °C 29.74in /  1007hPa SE 0.9mph /  1.4km/h 2.0mph /  3.2km/h 59% 0.00in /  0mm 28.0 W/m2
08:13 58.3 °F /  14.6 °C 42.6 °F /  5.9 °C 29.74in /  1007hPa Calm   2.0mph /  3.2km/h 56% 0.00in /  0mm 42.0 W/m2
08:18 58.8 °F /  14.9 °C 42.3 °F /  5.7 °C 29.74in /  1007hPa Calm     54% 0.00in /  0mm 42.0 W/m2
08:23 59.2 °F /  15.1 °C 40.6 °F /  4.8 °C 29.73in /  1006.7hPa Calm     50% 0.00in /  0mm 30.0 W/m2
08:28 59.7 °F /  15.4 °C 41.0 °F /  5 °C 29.73in /  1006.7hPa Calm   1.0mph /  1.6km/h 50% 0.00in /  0mm 30.0 W/m2
08:33 60.3 °F /  15.7 °C 40.5 °F /  4.7 °C 29.74in /  1007hPa Calm   1.0mph /  1.6km/h 48% 0.00in /  0mm 32.0 W/m2
08:38 60.8 °F /  16 °C 41.0 °F /  5 °C 29.73in /  1006.7hPa Calm   1.0mph /  1.6km/h 48% 0.00in /  0mm 33.0 W/m2
08:43 61.3 °F /  16.3 °C 40.5 °F /  4.7 °C 29.73in /  1006.7hPa Calm     46% 0.00in /  0mm 39.0 W/m2
08:48 62.1 °F /  16.7 °C 42.1 °F /  5.6 °C 29.73in /  1006.7hPa SSW 2.0mph /  3.2km/h 3.0mph /  4.8km/h 48% 0.00in /  0mm 179.0 W/m2
08:54 62.6 °F /  17 °C 42.1 °F /  5.6 °C 29.73in /  1006.7hPa SSW 2.9mph /  4.7km/h 3.0mph /  4.8km/h 47% 0.00in /  0mm 512.0 W/m2
08:59 63.3 °F /  17.4 °C 41.5 °F /  5.3 °C 29.73in /  1006.7hPa SW 0.9mph /  1.4km/h 2.0mph /  3.2km/h 45% 0.00in /  0mm 536.0 W/m2
09:04 64.2 °F /  17.9 °C 41.2 °F /  5.1 °C 29.73in /  1006.7hPa Calm   1.0mph /  1.6km/h 43% 0.00in /  0mm 554.0 W/m2
09:09 65.1 °F /  18.4 °C 42.1 °F /  5.6 °C 29.73in /  1006.7hPa Calm     43% 0.00in /  0mm 577.0 W/m2
09:14 66.0 °F /  18.9 °C 41.0 °F /  5 °C 29.73in /  1006.7hPa Calm   2.0mph /  3.2km/h 40% 0.00in /  0mm 596.0 W/m2
09:19 66.7 °F /  19.3 °C 41.0 °F /  5 °C 29.72in /  1006.3hPa Calm     39% 0.00in /  0mm 615.0 W/m2
09:24 68.4 °F /  20.2 °C 39.6 °F /  4.2 °C 29.72in /  1006.3hPa NNE 2.9mph /  4.7km/h 4.0mph /  6.4km/h 35% 0.00in /  0mm 636.0 W/m2
09:29 69.4 °F /  20.8 °C 39.9 °F /  4.4 °C 29.72in /  1006.3hPa NNE 0.9mph /  1.4km/h 2.0mph /  3.2km/h 34% 0.00in /  0mm 657.0 W/m2
09:34 70.3 °F /  21.3 °C 39.9 °F /  4.4 °C 29.72in /  1006.3hPa NNW 0.9mph /  1.4km/h 3.0mph /  4.8km/h 33% 0.00in /  0mm 675.0 W/m2
09:40 71.2 °F /  21.8 °C 39.9 °F /  4.4 °C 29.72in /  1006.3hPa NNW 0.9mph /  1.4km/h 2.0mph /  3.2km/h 32% 0.00in /  0mm 693.0 W/m2
09:45 71.8 °F /  22.1 °C 40.3 °F /  4.6 °C 29.72in /  1006.3hPa NNW 2.9mph /  4.7km/h 3.0mph /  4.8km/h 32% 0.00in /  0mm 710.0 W/m2
09:50 72.7 °F /  22.6 °C 40.3 °F /  4.6 °C 29.72in /  1006.3hPa Calm   1.0mph /  1.6km/h 31% 0.00in /  0mm 728.0 W/m2
09:56 73.6 °F /  23.1 °C 40.3 °F /  4.6 °C 29.72in /  1006.3hPa Calm   1.0mph /  1.6km/h 30% 0.00in /  0mm 742.0 W/m2
10:01 73.9 °F /  23.3 °C 41.4 °F /  5.2 °C 29.72in /  1006.3hPa NW 2.0mph /  3.2km/h 5.0mph /  8km/h 31% 0.00in /  0mm 758.0 W/m2
10:06 74.8 °F /  23.8 °C 40.5 °F /  4.7 °C 29.72in /  1006.3hPa Calm   4.0mph /  6.4km/h 29% 0.00in /  0mm 780.0 W/m2
10:11 75.6 °F /  24.2 °C 40.1 °F /  4.5 °C 29.72in /  1006.3hPa NNW 2.0mph /  3.2km/h 5.0mph /  8km/h 28% 0.00in /  0mm 789.0 W/m2
10:16 76.5 °F /  24.7 °C 41.0 °F /  5 °C 29.72in /  1006.3hPa WNW 4.0mph /  6.4km/h 5.0mph /  8km/h 28% 0.00in /  0mm 807.0 W/m2
10:21 76.8 °F /  24.9 °C 41.2 °F /  5.1 °C 29.72in /  1006.3hPa Calm   4.0mph /  6.4km/h 28% 0.00in /  0mm 817.0 W/m2
10:27 76.8 °F /  24.9 °C 39.4 °F /  4.1 °C 29.72in /  1006.3hPa West 2.0mph /  3.2km/h 6.0mph /  9.7km/h 26% 0.00in /  0mm 837.0 W/m2
10:32 76.8 °F /  24.9 °C 36.1 °F /  2.3 °C 29.72in /  1006.3hPa NNW 2.9mph /  4.7km/h 5.0mph /  8km/h 23% 0.00in /  0mm 856.0 W/m2
10:37 77.4 °F /  25.2 °C 35.6 °F /  2 °C 29.72in /  1006.3hPa NW 0.9mph /  1.4km/h 3.0mph /  4.8km/h 22% 0.00in /  0mm 861.0 W/m2
10:43 77.9 °F /  25.5 °C 38.1 °F /  3.4 °C 29.72in /  1006.3hPa NNW 2.9mph /  4.7km/h 5.0mph /  8km/h 24% 0.00in /  0mm 882.0 W/m2
10:48 78.6 °F /  25.9 °C 35.4 °F /  1.9 °C 29.72in /  1006.3hPa NNW 2.9mph /  4.7km/h 5.0mph /  8km/h 21% 0.00in /  0mm 893.0 W/m2
10:53 79.2 °F /  26.2 °C 37.0 °F /  2.8 °C 29.72in /  1006.3hPa WSW 0.9mph /  1.4km/h 2.0mph /  3.2km/h 22% 0.00in /  0mm 904.0 W/m2
10:58 79.5 °F /  26.4 °C 36.1 °F /  2.3 °C 29.72in /  1006.3hPa Calm   4.0mph /  6.4km/h 21% 0.00in /  0mm 916.0 W/m2
11:04 79.9 °F /  26.6 °C 37.6 °F /  3.1 °C 29.72in /  1006.3hPa Calm   4.0mph /  6.4km/h 22% 0.00in /  0mm 925.0 W/m2
11:09 79.9 °F /  26.6 °C 36.5 °F /  2.5 °C 29.72in /  1006.3hPa NNE 0.9mph /  1.4km/h 8.0mph /  12.9km/h 21% 0.00in /  0mm 939.0 W/m2
11:14 79.9 °F /  26.6 °C 38.8 °F /  3.8 °C 29.72in /  1006.3hPa West 2.0mph /  3.2km/h 5.0mph /  8km/h 23% 0.00in /  0mm 947.0 W/m2
11:20 80.2 °F /  26.8 °C 36.7 °F /  2.6 °C 29.72in /  1006.3hPa NNW 2.9mph /  4.7km/h 6.0mph /  9.7km/h 21% 0.00in /  0mm 972.0 W/m2
11:25 80.8 °F /  27.1 °C 37.2 °F /  2.9 °C 29.72in /  1006.3hPa North 2.9mph /  4.7km/h 5.0mph /  8km/h 21% 0.00in /  0mm 969.0 W/m2
11:30 81.0 °F /  27.2 °C 39.7 °F /  4.3 °C 29.72in /  1006.3hPa NNW 6.9mph /  11.1km/h 7.0mph /  11.3km/h 23% 0.00in /  0mm 981.0 W/m2
11:35 81.3 °F /  27.4 °C 37.6 °F /  3.1 °C 29.72in /  1006.3hPa NNW 4.0mph /  6.4km/h 7.0mph /  11.3km/h 21% 0.00in /  0mm 981.0 W/m2
11:40 81.3 °F /  27.4 °C 37.6 °F /  3.1 °C 29.72in /  1006.3hPa NNE 4.9mph /  7.9km/h 7.0mph /  11.3km/h 21% 0.00in /  0mm 993.0 W/m2
11:46 81.7 °F /  27.6 °C 36.7 °F /  2.6 °C 29.72in /  1006.3hPa WNW 2.9mph /  4.7km/h 8.0mph /  12.9km/h 20% 0.00in /  0mm 1004.0 W/m2
11:51 81.9 °F /  27.7 °C 38.1 °F /  3.4 °C 29.72in /  1006.3hPa Calm   4.0mph /  6.4km/h 21% 0.00in /  0mm 1021.0 W/m2
11:56 82.0 °F /  27.8 °C 35.8 °F /  2.1 °C 29.72in /  1006.3hPa NNE 4.9mph /  7.9km/h 8.0mph /  12.9km/h 19% 0.00in /  0mm 1018.0 W/m2
12:02 82.2 °F /  27.9 °C 37.2 °F /  2.9 °C 29.71in /  1006hPa WNW 2.0mph /  3.2km/h 9.0mph /  14.5km/h 20% 0.00in /  0mm 1039.0 W/m2
12:07 82.2 °F /  27.9 °C 35.8 °F /  2.1 °C 29.72in /  1006.3hPa NW 2.9mph /  4.7km/h 4.0mph /  6.4km/h 19% 0.00in /  0mm 1041.0 W/m2
12:12 82.6 °F /  28.1 °C 34.7 °F /  1.5 °C 29.72in /  1006.3hPa WNW 0.9mph /  1.4km/h 9.0mph /  14.5km/h 18% 0.00in /  0mm 1048.0 W/m2
12:17 82.8 °F /  28.2 °C 34.9 °F /  1.6 °C 29.72in /  1006.3hPa NW 6.0mph /  9.7km/h 7.0mph /  11.3km/h 18% 0.00in /  0mm 1051.0 W/m2
12:22 82.8 °F /  28.2 °C 34.9 °F /  1.6 °C 29.72in /  1006.3hPa WSW 4.0mph /  6.4km/h 6.0mph /  9.7km/h 18% 0.00in /  0mm 1053.0 W/m2
12:27 82.6 °F /  28.1 °C 34.7 °F /  1.5 °C 29.72in /  1006.3hPa North 8.9mph /  14.3km/h 9.0mph /  14.5km/h 18% 0.00in /  0mm 1060.0 W/m2
12:32 82.9 °F /  28.3 °C 33.6 °F /  0.9 °C 29.72in /  1006.3hPa North 4.0mph /  6.4km/h 8.0mph /  12.9km/h 17% 0.00in /  0mm 1060.0 W/m2
12:37 83.3 °F /  28.5 °C 30.7 °F /  -0.7 °C 29.72in /  1006.3hPa WNW 2.9mph /  4.7km/h 7.0mph /  11.3km/h 15% 0.00in /  0mm 1072.0 W/m2
12:42 83.7 °F /  28.7 °C 29.5 °F /  -1.4 °C 29.72in /  1006.3hPa North 2.9mph /  4.7km/h 5.0mph /  8km/h 14% 0.00in /  0mm 1076.0 W/m2
12:47 83.5 °F /  28.6 °C 30.9 °F /  -0.6 °C 29.72in /  1006.3hPa WNW 2.0mph /  3.2km/h 11.0mph /  17.7km/h 15% 0.00in /  0mm 1083.0 W/m2
12:53 83.7 °F /  28.7 °C 31.1 °F /  -0.5 °C 29.71in /  1006hPa NW 4.0mph /  6.4km/h 5.0mph /  8km/h 15% 0.00in /  0mm 1081.0 W/m2
12:58 83.8 °F /  28.8 °C 29.5 °F /  -1.4 °C 29.72in /  1006.3hPa NNW 8.1mph /  13km/h 10.0mph /  16.1km/h 14% 0.00in /  0mm 1086.0 W/m2
13:03 83.8 °F /  28.8 °C 31.3 °F /  -0.4 °C 29.71in /  1006hPa WSW 0.9mph /  1.4km/h 9.0mph /  14.5km/h 15% 0.00in /  0mm 1081.0 W/m2
13:08 84.0 °F /  28.9 °C 31.5 °F /  -0.3 °C 29.71in /  1006hPa NW 4.9mph /  7.9km/h 5.0mph /  8km/h 15% 0.00in /  0mm 1085.0 W/m2
13:13 84.4 °F /  29.1 °C 30.0 °F /  -1.1 °C 29.71in /  1006hPa NE 4.9mph /  7.9km/h 7.0mph /  11.3km/h 14% 0.00in /  0mm 1078.0 W/m2
13:18 83.8 °F /  28.8 °C 31.3 °F /  -0.4 °C 29.71in /  1006hPa North 2.0mph /  3.2km/h 11.0mph /  17.7km/h 15% 0.00in /  0mm 1078.0 W/m2
13:23 84.0 °F /  28.9 °C 31.5 °F /  -0.3 °C 29.71in /  1006hPa NW 2.0mph /  3.2km/h 11.0mph /  17.7km/h 15% 0.00in /  0mm 1079.0 W/m2
13:28 84.4 °F /  29.1 °C 31.6 °F /  -0.2 °C 29.71in /  1006hPa NNW 11.0mph /  17.7km/h 11.0mph /  17.7km/h 15% 0.00in /  0mm 1062.0 W/m2
13:33 84.6 °F /  29.2 °C 31.8 °F /  -0.1 °C 29.71in /  1006hPa North 0.9mph /  1.4km/h 5.0mph /  8km/h 15% 0.00in /  0mm 1063.0 W/m2
13:38 85.1 °F /  29.5 °C 30.6 °F /  -0.8 °C 29.70in /  1005.6hPa NW 2.0mph /  3.2km/h 9.0mph /  14.5km/h 14% 0.00in /  0mm 1062.0 W/m2
13:43 85.5 °F /  29.7 °C 30.9 °F /  -0.6 °C 29.70in /  1005.6hPa NW 0.9mph /  1.4km/h 4.0mph /  6.4km/h 14% 0.00in /  0mm 1058.0 W/m2
13:49 85.5 °F /  29.7 °C 30.9 °F /  -0.6 °C 29.70in /  1005.6hPa NNW 4.0mph /  6.4km/h 12.0mph /  19.3km/h 14% 0.00in /  0mm 1055.0 W/m2
13:54 85.5 °F /  29.7 °C 30.9 °F /  -0.6 °C 29.70in /  1005.6hPa North 6.0mph /  9.7km/h 11.0mph /  17.7km/h 14% 0.00in /  0mm 1055.0 W/m2
13:59 85.3 °F /  29.6 °C 28.9 °F /  -1.7 °C 29.70in /  1005.6hPa WNW 0.9mph /  1.4km/h 9.0mph /  14.5km/h 13% 0.00in /  0mm 1039.0 W/m2
14:04 85.3 °F /  29.6 °C 30.7 °F /  -0.7 °C 29.69in /  1005.3hPa North 0.9mph /  1.4km/h 6.0mph /  9.7km/h 14% 0.00in /  0mm 1037.0 W/m2
14:09 85.6 °F /  29.8 °C 29.1 °F /  -1.6 °C 29.70in /  1005.6hPa North 6.0mph /  9.7km/h 13.0mph /  20.9km/h 13% 0.00in /  0mm 1027.0 W/m2
14:15 85.5 °F /  29.7 °C 27.1 °F /  -2.7 °C 29.69in /  1005.3hPa NNE 0.9mph /  1.4km/h 6.0mph /  9.7km/h 12% 0.00in /  0mm 1016.0 W/m2
14:20 85.5 °F /  29.7 °C 28.9 °F /  -1.7 °C 29.69in /  1005.3hPa WNW 0.9mph /  1.4km/h 13.0mph /  20.9km/h 13% 0.00in /  0mm 1005.0 W/m2
14:26 85.6 °F /  29.8 °C 29.1 °F /  -1.6 °C 29.69in /  1005.3hPa NW 6.9mph /  11.1km/h 13.0mph /  20.9km/h 13% 0.00in /  0mm 998.0 W/m2
14:31 85.8 °F /  29.9 °C 29.3 °F /  -1.5 °C 29.68in /  1005hPa ENE 2.0mph /  3.2km/h 8.0mph /  12.9km/h 13% 0.00in /  0mm 986.0 W/m2
14:36 86.2 °F /  30.1 °C 29.7 °F /  -1.3 °C 29.68in /  1005hPa NNW 4.0mph /  6.4km/h 10.0mph /  16.1km/h 13% 0.00in /  0mm 977.0 W/m2
14:41 86.2 °F /  30.1 °C 29.7 °F /  -1.3 °C 29.68in /  1005hPa NNW 0.9mph /  1.4km/h 9.0mph /  14.5km/h 13% 0.00in /  0mm 969.0 W/m2
14:46 86.4 °F /  30.2 °C 27.7 °F /  -2.4 °C 29.68in /  1005hPa WNW 4.0mph /  6.4km/h 8.0mph /  12.9km/h 12% 0.00in /  0mm 960.0 W/m2
14:52 86.2 °F /  30.1 °C 29.7 °F /  -1.3 °C 29.67in /  1004.6hPa Calm   4.0mph /  6.4km/h 13% 0.00in /  0mm 947.0 W/m2
14:57 86.4 °F /  30.2 °C 29.7 °F /  -1.3 °C 29.67in /  1004.6hPa NNW 4.9mph /  7.9km/h 7.0mph /  11.3km/h 13% 0.00in /  0mm 935.0 W/m2
15:02 86.4 °F /  30.2 °C 29.7 °F /  -1.3 °C 29.67in /  1004.6hPa NNE 4.0mph /  6.4km/h 8.0mph /  12.9km/h 13% 0.00in /  0mm 926.0 W/m2
15:07 86.7 °F /  30.4 °C 31.8 °F /  -0.1 °C 29.67in /  1004.6hPa NNW 11.0mph /  17.7km/h 11.0mph /  17.7km/h 14% 0.00in /  0mm 914.0 W/m2
15:12 86.9 °F /  30.5 °C 30.2 °F /  -1 °C 29.67in /  1004.6hPa WNW 2.0mph /  3.2km/h 8.0mph /  12.9km/h 13% 0.00in /  0mm 902.0 W/m2
15:17 86.7 °F /  30.4 °C 30.0 °F /  -1.1 °C 29.67in /  1004.6hPa Calm   6.0mph /  9.7km/h 13% 0.00in /  0mm 884.0 W/m2
15:22 87.1 °F /  30.6 °C 30.2 °F /  -1 °C 29.67in /  1004.6hPa NNW 6.0mph /  9.7km/h 10.0mph /  16.1km/h 13% 0.00in /  0mm 879.0 W/m2
15:27 87.3 °F /  30.7 °C 30.4 °F /  -0.9 °C 29.67in /  1004.6hPa NE 6.0mph /  9.7km/h 6.0mph /  9.7km/h 13% 0.00in /  0mm 863.0 W/m2
15:32 87.4 °F /  30.8 °C 28.6 °F /  -1.9 °C 29.67in /  1004.6hPa ENE 2.9mph /  4.7km/h 7.0mph /  11.3km/h 12% 0.00in /  0mm 851.0 W/m2
15:37 87.8 °F /  31 °C 28.9 °F /  -1.7 °C 29.67in /  1004.6hPa NNW 4.0mph /  6.4km/h 8.0mph /  12.9km/h 12% 0.00in /  0mm 830.0 W/m2
15:43 88.2 °F /  31.2 °C 27.0 °F /  -2.8 °C 29.67in /  1004.6hPa North 8.9mph /  14.3km/h 13.0mph /  20.9km/h 11% 0.00in /  0mm 821.0 W/m2
15:48 88.0 °F /  31.1 °C 27.0 °F /  -2.8 °C 29.67in /  1004.6hPa West 4.9mph /  7.9km/h 11.0mph /  17.7km/h 11% 0.00in /  0mm 807.0 W/m2
15:53 87.8 °F /  31 °C 26.8 °F /  -2.9 °C 29.66in /  1004.3hPa NNE 6.9mph /  11.1km/h 8.0mph /  12.9km/h 11% 0.00in /  0mm 786.0 W/m2
15:58 87.4 °F /  30.8 °C 26.4 °F /  -3.1 °C 29.66in /  1004.3hPa NNE 6.9mph /  11.1km/h 11.0mph /  17.7km/h 11% 0.00in /  0mm 772.0 W/m2
16:03 87.4 °F /  30.8 °C 28.6 °F /  -1.9 °C 29.66in /  1004.3hPa NNW 6.9mph /  11.1km/h 11.0mph /  17.7km/h 12% 0.00in /  0mm 761.0 W/m2
16:08 88.0 °F /  31.1 °C 27.0 °F /  -2.8 °C 29.66in /  1004.3hPa West 4.9mph /  7.9km/h 8.0mph /  12.9km/h 11% 0.00in /  0mm 742.0 W/m2
16:13 88.3 °F /  31.3 °C 24.8 °F /  -4 °C 29.66in /  1004.3hPa WNW 0.9mph /  1.4km/h 4.0mph /  6.4km/h 10% 0.00in /  0mm 728.0 W/m2
16:18 88.5 °F /  31.4 °C 25.0 °F /  -3.9 °C 29.67in /  1004.6hPa NNW 4.9mph /  7.9km/h 5.0mph /  8km/h 10% 0.00in /  0mm 712.0 W/m2
16:23 88.5 °F /  31.4 °C 25.0 °F /  -3.9 °C 29.67in /  1004.6hPa Calm   5.0mph /  8km/h 10% 0.00in /  0mm 691.0 W/m2
16:28 88.9 °F /  31.6 °C 22.8 °F /  -5.1 °C 29.66in /  1004.3hPa WSW 2.0mph /  3.2km/h 4.0mph /  6.4km/h 9% 0.00in /  0mm 675.0 W/m2
16:34 88.7 °F /  31.5 °C 25.2 °F /  -3.8 °C 29.67in /  1004.6hPa NW 6.9mph /  11.1km/h 8.0mph /  12.9km/h 10% 0.00in /  0mm 659.0 W/m2
16:39 88.3 °F /  31.3 °C 24.8 °F /  -4 °C 29.66in /  1004.3hPa SW 6.0mph /  9.7km/h 8.0mph /  12.9km/h 10% 0.00in /  0mm 643.0 W/m2
16:44 88.2 °F /  31.2 °C 22.3 °F /  -5.4 °C 29.67in /  1004.6hPa West 2.0mph /  3.2km/h 6.0mph /  9.7km/h 9% 0.00in /  0mm 624.0 W/m2
16:49 87.8 °F /  31 °C 24.4 °F /  -4.2 °C 29.67in /  1004.6hPa West 0.9mph /  1.4km/h 7.0mph /  11.3km/h 10% 0.00in /  0mm 605.0 W/m2
16:54 87.4 °F /  30.8 °C 24.3 °F /  -4.3 °C 29.67in /  1004.6hPa West 2.0mph /  3.2km/h 13.0mph /  20.9km/h 10% 0.00in /  0mm 587.0 W/m2
16:59 87.6 °F /  30.9 °C 24.3 °F /  -4.3 °C 29.66in /  1004.3hPa Calm   6.0mph /  9.7km/h 10% 0.00in /  0mm 570.0 W/m2
17:04 87.6 °F /  30.9 °C 21.7 °F /  -5.7 °C 29.66in /  1004.3hPa SSW 2.9mph /  4.7km/h 10.0mph /  16.1km/h 9% 0.00in /  0mm 548.0 W/m2
17:09 87.3 °F /  30.7 °C 24.1 °F /  -4.4 °C 29.66in /  1004.3hPa SW 4.0mph /  6.4km/h 6.0mph /  9.7km/h 10% 0.00in /  0mm 527.0 W/m2
17:14 87.1 °F /  30.6 °C 23.9 °F /  -4.5 °C 29.66in /  1004.3hPa WSW 4.9mph /  7.9km/h 9.0mph /  14.5km/h 10% 0.00in /  0mm 506.0 W/m2
17:20 86.9 °F /  30.5 °C 23.7 °F /  -4.6 °C 29.67in /  1004.6hPa Calm   5.0mph /  8km/h 10% 0.00in /  0mm 487.0 W/m2
17:25 86.9 °F /  30.5 °C 23.7 °F /  -4.6 °C 29.67in /  1004.6hPa West 6.0mph /  9.7km/h 6.0mph /  9.7km/h 10% 0.00in /  0mm 468.0 W/m2
17:30 87.1 °F /  30.6 °C 21.4 °F /  -5.9 °C 29.67in /  1004.6hPa WSW 0.9mph /  1.4km/h 5.0mph /  8km/h 9% 0.00in /  0mm 446.0 W/m2
17:35 87.4 °F /  30.8 °C 21.7 °F /  -5.7 °C 29.67in /  1004.6hPa West 0.9mph /  1.4km/h 3.0mph /  4.8km/h 9% 0.00in /  0mm 427.0 W/m2
17:40 87.6 °F /  30.9 °C 21.7 °F /  -5.7 °C 29.67in /  1004.6hPa NW 0.9mph /  1.4km/h 9.0mph /  14.5km/h 9% 0.00in /  0mm 406.0 W/m2
17:45 88.0 °F /  31.1 °C 22.1 °F /  -5.5 °C 29.67in /  1004.6hPa North 2.9mph /  4.7km/h 6.0mph /  9.7km/h 9% 0.00in /  0mm 385.0 W/m2
17:50 88.0 °F /  31.1 °C 22.1 °F /  -5.5 °C 29.67in /  1004.6hPa WSW 4.0mph /  6.4km/h 11.0mph /  17.7km/h 9% 0.00in /  0mm 364.0 W/m2
17:55 87.4 °F /  30.8 °C 21.7 °F /  -5.7 °C 29.67in /  1004.6hPa WSW 2.0mph /  3.2km/h 7.0mph /  11.3km/h 9% 0.00in /  0mm 341.0 W/m2
18:00 87.3 °F /  30.7 °C 21.6 °F /  -5.8 °C 29.68in /  1005hPa Calm   5.0mph /  8km/h 9% 0.00in /  0mm 323.0 W/m2
18:05 87.4 °F /  30.8 °C 21.7 °F /  -5.7 °C 29.67in /  1004.6hPa WSW 2.0mph /  3.2km/h 4.0mph /  6.4km/h 9% 0.00in /  0mm 302.0 W/m2
18:10 87.6 °F /  30.9 °C 24.3 °F /  -4.3 °C 29.68in /  1005hPa Calm   6.0mph /  9.7km/h 10% 0.00in /  0mm 279.0 W/m2
18:16 87.6 °F /  30.9 °C 21.7 °F /  -5.7 °C 29.68in /  1005hPa West 2.0mph /  3.2km/h 7.0mph /  11.3km/h 9% 0.00in /  0mm 257.0 W/m2
18:21 87.6 °F /  30.9 °C 21.7 °F /  -5.7 °C 29.68in /  1005hPa WNW 6.9mph /  11.1km/h 11.0mph /  17.7km/h 9% 0.00in /  0mm 237.0 W/m2
18:26 87.1 °F /  30.6 °C 23.9 °F /  -4.5 °C 29.68in /  1005hPa WSW 2.0mph /  3.2km/h 8.0mph /  12.9km/h 10% 0.00in /  0mm 216.0 W/m2
18:31 86.2 °F /  30.1 °C 23.2 °F /  -4.9 °C 29.68in /  1005hPa WSW 2.0mph /  3.2km/h 9.0mph /  14.5km/h 10% 0.00in /  0mm 195.0 W/m2
18:36 85.6 °F /  29.8 °C 25.2 °F /  -3.8 °C 29.69in /  1005.3hPa SW 2.9mph /  4.7km/h 6.0mph /  9.7km/h 11% 0.00in /  0mm 171.0 W/m2
18:41 84.9 °F /  29.4 °C 24.6 °F /  -4.1 °C 29.69in /  1005.3hPa WSW 4.9mph /  7.9km/h 8.0mph /  12.9km/h 11% 0.00in /  0mm 144.0 W/m2
18:46 84.6 °F /  29.2 °C 24.3 °F /  -4.3 °C 29.69in /  1005.3hPa WSW 4.0mph /  6.4km/h 7.0mph /  11.3km/h 11% 0.00in /  0mm 120.0 W/m2
18:51 84.0 °F /  28.9 °C 23.9 °F /  -4.5 °C 29.69in /  1005.3hPa NNW 0.9mph /  1.4km/h 6.0mph /  9.7km/h 11% 0.00in /  0mm 95.0 W/m2
18:56 83.7 °F /  28.7 °C 23.5 °F /  -4.7 °C 29.69in /  1005.3hPa West 2.9mph /  4.7km/h 9.0mph /  14.5km/h 11% 0.00in /  0mm 74.0 W/m2
19:01 83.1 °F /  28.4 °C 25.3 °F /  -3.7 °C 29.69in /  1005.3hPa West 2.9mph /  4.7km/h 5.0mph /  8km/h 12% 0.00in /  0mm 53.0 W/m2
19:07 82.8 °F /  28.2 °C 25.0 °F /  -3.9 °C 29.69in /  1005.3hPa West 2.9mph /  4.7km/h 6.0mph /  9.7km/h 12% 0.00in /  0mm 33.0 W/m2
19:12 82.2 °F /  27.9 °C 24.6 °F /  -4.1 °C 29.70in /  1005.6hPa West 0.9mph /  1.4km/h 7.0mph /  11.3km/h 12% 0.00in /  0mm 23.0 W/m2
19:17 81.3 °F /  27.4 °C 23.9 °F /  -4.5 °C 29.70in /  1005.6hPa West 2.0mph /  3.2km/h 5.0mph /  8km/h 12% 0.00in /  0mm 12.0 W/m2
19:23 80.4 °F /  26.9 °C 25.2 °F /  -3.8 °C 29.70in /  1005.6hPa WSW 0.9mph /  1.4km/h 2.0mph /  3.2km/h 13% 0.00in /  0mm 7.0 W/m2
19:28 79.9 °F /  26.6 °C 24.6 °F /  -4.1 °C 29.70in /  1005.6hPa West 2.9mph /  4.7km/h 8.0mph /  12.9km/h 13% 0.00in /  0mm 5.0 W/m2
19:33 79.2 °F /  26.2 °C 24.1 °F /  -4.4 °C 29.70in /  1005.6hPa WSW 0.9mph /  1.4km/h 1.0mph /  1.6km/h 13% 0.00in /  0mm 0.0 W/m2
19:39 78.6 °F /  25.9 °C 25.5 °F /  -3.6 °C 29.70in /  1005.6hPa Calm   3.0mph /  4.8km/h 14% 0.00in /  0mm 0.0 W/m2
19:44 78.3 °F /  25.7 °C 25.2 °F /  -3.8 °C 29.70in /  1005.6hPa Calm   1.0mph /  1.6km/h 14% 0.00in /  0mm 0.0 W/m2
19:49 77.7 °F /  25.4 °C 26.4 °F /  -3.1 °C 29.71in /  1006hPa WSW 0.9mph /  1.4km/h 2.0mph /  3.2km/h 15% 0.00in /  0mm 0.0 W/m2
19:54 77.4 °F /  25.2 °C 26.1 °F /  -3.3 °C 29.71in /  1006hPa WSW 0.9mph /  1.4km/h 3.0mph /  4.8km/h 15% 0.00in /  0mm 0.0 W/m2
19:59 76.8 °F /  24.9 °C 25.7 °F /  -3.5 °C 29.71in /  1006hPa Calm   1.0mph /  1.6km/h 15% 0.00in /  0mm 0.0 W/m2
20:05 76.5 °F /  24.7 °C 25.3 °F /  -3.7 °C 29.71in /  1006hPa Calm   2.0mph /  3.2km/h 15% 0.00in /  0mm 0.0 W/m2
20:10 76.1 °F /  24.5 °C 26.6 °F /  -3 °C 29.71in /  1006hPa Calm   2.0mph /  3.2km/h 16% 0.00in /  0mm 0.0 W/m2
20:15 75.9 °F /  24.4 °C 28.0 °F /  -2.2 °C 29.72in /  1006.3hPa Calm   1.0mph /  1.6km/h 17% 0.00in /  0mm 0.0 W/m2
20:21 75.6 °F /  24.2 °C 27.7 °F /  -2.4 °C 29.72in /  1006.3hPa Calm   1.0mph /  1.6km/h 17% 0.00in /  0mm 0.0 W/m2
20:26 75.2 °F /  24 °C 28.8 °F /  -1.8 °C 29.72in /  1006.3hPa Calm     18% 0.00in /  0mm 0.0 W/m2
20:31 74.7 °F /  23.7 °C 29.7 °F /  -1.3 °C 29.72in /  1006.3hPa Calm     19% 0.00in /  0mm 0.0 W/m2
20:37 74.1 °F /  23.4 °C 29.3 °F /  -1.5 °C 29.72in /  1006.3hPa Calm     19% 0.00in /  0mm 0.0 W/m2
20:42 73.9 °F /  23.3 °C 27.7 °F /  -2.4 °C 29.72in /  1006.3hPa Calm     18% 0.00in /  0mm 0.0 W/m2
20:47 73.6 °F /  23.1 °C 30.0 °F /  -1.1 °C 29.72in /  1006.3hPa Calm   1.0mph /  1.6km/h 20% 0.00in /  0mm 0.0 W/m2
20:53 73.0 °F /  22.8 °C 28.4 °F /  -2 °C 29.72in /  1006.3hPa SW 2.0mph /  3.2km/h 4.0mph /  6.4km/h 19% 0.00in /  0mm 0.0 W/m2
20:58 72.7 °F /  22.6 °C 26.8 °F /  -2.9 °C 29.73in /  1006.7hPa Calm   1.0mph /  1.6km/h 18% 0.00in /  0mm 0.0 W/m2
21:03 72.5 °F /  22.5 °C 27.9 °F /  -2.3 °C 29.73in /  1006.7hPa Calm   1.0mph /  1.6km/h 19% 0.00in /  0mm 0.0 W/m2
21:08 72.1 °F /  22.3 °C 27.7 °F /  -2.4 °C 29.73in /  1006.7hPa West 3.0mph /  4.8km/h 3.0mph /  4.8km/h 19% 0.00in /  0mm 0.0 W/m2
21:13 72.1 °F /  22.3 °C 27.7 °F /  -2.4 °C 29.74in /  1007hPa WSW 0.9mph /  1.4km/h 6.0mph /  9.7km/h 19% 0.00in /  0mm 0.0 W/m2
21:18 72.1 °F /  22.3 °C 27.7 °F /  -2.4 °C 29.74in /  1007hPa Calm   3.0mph /  4.8km/h 19% 0.00in /  0mm 0.0 W/m2
21:23 72.0 °F /  22.2 °C 28.8 °F /  -1.8 °C 29.75in /  1007.3hPa WSW 0.9mph /  1.4km/h 2.0mph /  3.2km/h 20% 0.00in /  0mm 0.0 W/m2
21:28 71.8 °F /  22.1 °C 29.7 °F /  -1.3 °C 29.75in /  1007.3hPa Calm   1.0mph /  1.6km/h 21% 0.00in /  0mm 0.0 W/m2
21:34 71.6 °F /  22 °C 29.7 °F /  -1.3 °C 29.75in /  1007.3hPa Calm   3.0mph /  4.8km/h 21% 0.00in /  0mm 0.0 W/m2
21:39 71.4 °F /  21.9 °C 29.5 °F /  -1.4 °C 29.75in /  1007.3hPa Calm   1.0mph /  1.6km/h 21% 0.00in /  0mm 0.0 W/m2
21:44 71.2 °F /  21.8 °C 29.3 °F /  -1.5 °C 29.75in /  1007.3hPa SW 0.9mph /  1.4km/h 6.0mph /  9.7km/h 21% 0.00in /  0mm 0.0 W/m2
21:49 71.1 °F /  21.7 °C 30.2 °F /  -1 °C 29.76in /  1007.7hPa SSW 2.9mph /  4.7km/h 5.0mph /  8km/h 22% 0.00in /  0mm 0.0 W/m2
21:54 70.9 °F /  21.6 °C 30.2 °F /  -1 °C 29.76in /  1007.7hPa Calm   1.0mph /  1.6km/h 22% 0.00in /  0mm 0.0 W/m2
21:59 70.7 °F /  21.5 °C 31.1 °F /  -0.5 °C 29.76in /  1007.7hPa Calm   2.0mph /  3.2km/h 23% 0.00in /  0mm 0.0 W/m2
22:04 70.5 °F /  21.4 °C 30.9 °F /  -0.6 °C 29.76in /  1007.7hPa Calm   5.0mph /  8km/h 23% 0.00in /  0mm 0.0 W/m2
22:09 70.3 °F /  21.3 °C 30.7 °F /  -0.7 °C 29.76in /  1007.7hPa Calm     23% 0.00in /  0mm 0.0 W/m2
22:14 70.2 °F /  21.2 °C 31.6 °F /  -0.2 °C 29.77in /  1008hPa Calm     24% 0.00in /  0mm 0.0 W/m2
22:19 70.0 °F /  21.1 °C 31.5 °F /  -0.3 °C 29.77in /  1008hPa Calm   1.0mph /  1.6km/h 24% 0.00in /  0mm 0.0 W/m2
22:24 69.6 °F /  20.9 °C 32.2 °F /  0.1 °C 29.77in /  1008hPa Calm   1.0mph /  1.6km/h 25% 0.00in /  0mm 0.0 W/m2
22:29 69.4 °F /  20.8 °C 33.1 °F /  0.6 °C 29.77in /  1008hPa Calm     26% 0.00in /  0mm 0.0 W/m2
22:35 69.1 °F /  20.6 °C 32.7 °F /  0.4 °C 29.77in /  1008hPa Calm     26% 0.00in /  0mm 0.0 W/m2
22:40 68.7 °F /  20.4 °C 32.4 °F /  0.2 °C 29.77in /  1008hPa Calm   2.0mph /  3.2km/h 26% 0.00in /  0mm 0.0 W/m2
22:45 68.5 °F /  20.3 °C 32.4 °F /  0.2 °C 29.77in /  1008hPa Calm   1.0mph /  1.6km/h 26% 0.00in /  0mm 0.0 W/m2
22:50 68.4 °F /  20.2 °C 33.1 °F /  0.6 °C 29.77in /  1008hPa Calm     27% 0.00in /  0mm 0.0 W/m2
22:56 68.0 °F /  20 °C 32.7 °F /  0.4 °C 29.77in /  1008hPa Calm     27% 0.00in /  0mm 0.0 W/m2
23:02 67.6 °F /  19.8 °C 33.4 °F /  0.8 °C 29.78in /  1008.4hPa Calm     28% 0.00in /  0mm 0.0 W/m2
23:07 67.5 °F /  19.7 °C 33.3 °F /  0.7 °C 29.78in /  1008.4hPa Calm     28% 0.00in /  0mm 0.0 W/m2
23:12 66.9 °F /  19.4 °C 33.6 °F /  0.9 °C 29.78in /  1008.4hPa Calm     29% 0.00in /  0mm 0.0 W/m2
23:17 66.7 °F /  19.3 °C 34.3 °F /  1.3 °C 29.78in /  1008.4hPa Calm   1.0mph /  1.6km/h 30% 0.00in /  0mm 0.0 W/m2
23:22 66.4 °F /  19.1 °C 34.9 °F /  1.6 °C 29.78in /  1008.4hPa East 2.0mph /  3.2km/h 2.0mph /  3.2km/h 31% 0.00in /  0mm 0.0 W/m2
23:28 65.8 °F /  18.8 °C 34.3 °F /  1.3 °C 29.78in /  1008.4hPa Calm   1.0mph /  1.6km/h 31% 0.00in /  0mm 0.0 W/m2
23:33 65.7 °F /  18.7 °C 35.1 °F /  1.7 °C 29.78in /  1008.4hPa Calm     32% 0.00in /  0mm 0.0 W/m2
23:38 65.3 °F /  18.5 °C 33.8 °F /  1 °C 29.78in /  1008.4hPa Calm   1.0mph /  1.6km/h 31% 0.00in /  0mm 0.0 W/m2
23:43 64.9 °F /  18.3 °C 33.6 °F /  0.9 °C 29.78in /  1008.4hPa Calm   1.0mph /  1.6km/h 31% 0.00in /  0mm 0.0 W/m2
23:49 64.8 °F /  18.2 °C 34.2 °F /  1.2 °C 29.78in /  1008.4hPa Calm   1.0mph /  1.6km/h 32% 0.00in /  0mm 0.0 W/m2
23:54 64.4 °F /  18 °C 34.0 °F /  1.1 °C 29.78in /  1008.4hPa Calm   2.0mph /  3.2km/h 32% 0.00in /  0mm 0.0 W/m2
23:59 64.0 °F /  17.8 °C 33.6 °F /  0.9 °C 29.78in /  1008.4hPa Calm   3.0mph /  4.8km/h 32% 0.00in /  0mm 0.0 W/m2
Olympia, Windhoek, Namibia
Compliments of Weather Underground - 3.25 mb